Time;durP1;ratioP1;P1;durP2;ratioP2;P2;SDS_P1;SDS_P2;PMS_P1;PMS_P2;Temp;Humidity;BMP_temperature;BMP_pressure;BME280_temperature;BME280_humidity;BME280_pressure;Samples;Min_cycle;Max_cycle;Signal;HPM_P1;HPM_P2
2022/11/26 00:01:14;;;;;;;7.27;3.10;;;;;;;7.33;100.00;102237.13;6087633;28;20241;-77
2022/11/26 00:04:34;;;;;;;3.90;3.60;;;;;;;7.26;100.00;102242.81;6071832;29;20232;-76
2022/11/26 00:07:57;;;;;;;9.47;4.63;;;;;;;7.29;100.00;102255.22;6088037;29;20236;-78
2022/11/26 00:11:18;;;;;;;6.60;3.73;;;;;;;7.28;100.00;102249.94;6069415;28;20349;-77
2022/11/26 00:14:40;;;;;;;16.37;6.00;;;;;;;7.26;100.00;102255.34;6085018;28;20221;-77
2022/11/26 00:18:01;;;;;;;8.83;4.07;;;;;;;7.25;100.00;102254.50;6078143;29;20236;-76
2022/11/26 00:21:27;;;;;;;16.17;5.53;;;;;;;7.22;100.00;102264.50;6082171;29;20237;-78
2022/11/26 00:24:49;;;;;;;12.77;4.80;;;;;;;7.21;100.00;102268.16;6075931;29;20228;-78
2022/11/26 00:28:27;;;;;;;10.47;4.20;;;;;;;7.19;100.00;102276.28;6072105;29;20229;-76
2022/11/26 00:31:50;;;;;;;8.67;5.20;;;;;;;7.20;100.00;102279.81;6081905;29;20232;-78
2022/11/26 00:35:11;;;;;;;7.27;4.67;;;;;;;7.14;100.00;102277.47;6077417;29;20236;-76
2022/11/26 00:38:32;;;;;;;7.20;4.00;;;;;;;7.09;100.00;102280.38;6074424;28;20236;-77
2022/11/26 00:41:53;;;;;;;10.53;5.70;;;;;;;7.08;100.00;102280.47;6091093;29;20233;-76
2022/11/26 00:45:17;;;;;;;6.60;4.13;;;;;;;7.09;100.00;102284.91;6091666;28;20236;-76
2022/11/26 00:48:39;;;;;;;7.40;3.93;;;;;;;7.04;100.00;102294.97;6070496;29;20236;-76
2022/11/26 00:52:00;;;;;;;5.93;3.40;;;;;;;7.05;100.00;102294.03;6092030;29;20221;-76
2022/11/26 00:55:29;;;;;;;5.77;4.60;;;;;;;7.00;100.00;102306.81;6055944;29;20233;-75
2022/11/26 00:58:50;;;;;;;6.80;3.27;;;;;;;6.97;100.00;102317.66;6073746;29;20644;-76
2022/11/26 01:02:11;;;;;;;7.00;4.63;;;;;;;6.91;100.00;102315.31;6086658;28;20603;-75
2022/11/26 01:05:34;;;;;;;9.10;4.53;;;;;;;6.87;100.00;102325.31;6088328;28;23090;-75
2022/11/26 01:08:55;;;;;;;5.90;4.50;;;;;;;6.89;100.00;102323.44;6077486;28;20239;-75
2022/11/26 01:12:16;;;;;;;6.30;4.37;;;;;;;6.88;100.00;102334.25;6091072;29;20964;-75
2022/11/26 01:15:37;;;;;;;5.13;4.37;;;;;;;6.85;100.00;102334.38;6065801;29;20503;-76
2022/11/26 01:19:01;;;;;;;5.60;3.90;;;;;;;6.76;100.00;102345.56;6072218;29;20244;-75
2022/11/26 01:22:23;;;;;;;7.17;3.60;;;;;;;6.80;100.00;102347.16;6089002;29;20255;-75
2022/11/26 01:25:44;;;;;;;5.97;4.47;;;;;;;6.80;100.00;102348.00;6088676;28;20236;-75
2022/11/26 01:29:05;;;;;;;11.10;4.90;;;;;;;6.80;100.00;102355.19;6075167;29;20228;-75
2022/11/26 01:32:26;;;;;;;14.13;4.63;;;;;;;6.73;100.00;102356.44;6075115;29;20322;-76
2022/11/26 01:35:46;;;;;;;7.53;4.90;;;;;;;6.72;100.00;102354.69;6068148;29;20263;-75
2022/11/26 01:39:15;;;;;;;7.70;3.93;;;;;;;6.72;100.00;102365.41;6076340;28;20231;-75
2022/11/26 01:42:42;;;;;;;6.27;4.73;;;;;;;6.71;100.00;102366.34;6089711;29;20228;-76
2022/11/26 01:46:03;;;;;;;13.80;5.30;;;;;;;6.66;100.00;102366.56;6062615;29;20232;-76
2022/11/26 01:49:26;;;;;;;7.23;4.10;;;;;;;6.66;100.00;102371.06;6076359;29;20239;-75
2022/11/26 01:52:49;;;;;;;11.07;5.47;;;;;;;6.64;100.00;102376.50;6091912;29;20623;-76
2022/11/26 01:56:27;;;;;;;11.43;5.03;;;;;;;6.62;100.00;102373.03;6070242;28;20236;-75
2022/11/26 01:59:51;;;;;;;9.07;5.60;;;;;;;6.63;100.00;102379.25;6076780;29;20228;-76
2022/11/26 02:03:14;;;;;;;10.33;5.90;;;;;;;6.66;100.00;102381.78;6090605;28;20244;-75
2022/11/26 02:06:35;;;;;;;7.60;4.80;;;;;;;6.66;100.00;102393.38;6084562;29;20240;-75
2022/11/26 02:09:56;;;;;;;6.47;5.17;;;;;;;6.64;100.00;102380.97;6090908;29;20236;-75
2022/11/26 02:13:19;;;;;;;6.67;4.63;;;;;;;6.63;100.00;102395.34;6088420;28;20775;-76
2022/11/26 02:17:21;;;;;;;8.37;4.43;;;;;;;6.60;100.00;102392.78;6089606;29;20240;-75
2022/11/26 02:20:52;;;;;;;6.80;4.60;;;;;;;6.60;100.00;102392.78;6087345;29;20235;-75
2022/11/26 02:24:33;;;;;;;8.87;5.43;;;;;;;6.52;100.00;102389.63;6083153;28;20240;-75
2022/11/26 02:28:17;;;;;;;10.67;6.73;;;;;;;6.53;100.00;102402.09;6092147;29;20245;-76
2022/11/26 02:31:45;;;;;;;9.33;5.37;;;;;;;6.58;100.00;102402.72;6083807;29;20236;-75
2022/11/26 02:35:12;;;;;;;8.83;5.13;;;;;;;6.57;100.00;102409.88;6090210;29;20231;-76
2022/11/26 02:38:37;;;;;;;11.20;5.90;;;;;;;6.54;100.00;102411.84;6080904;28;20233;-75
2022/11/26 02:42:03;;;;;;;10.13;6.00;;;;;;;6.60;100.00;102412.41;6102452;28;20236;-75
2022/11/26 02:45:28;;;;;;;5.57;4.83;;;;;;;6.51;100.00;102423.56;6091274;28;20232;-75
2022/11/26 02:48:52;;;;;;;5.70;4.40;;;;;;;6.52;100.00;102424.44;6073822;29;20232;-74
2022/11/26 02:52:16;;;;;;;9.60;5.10;;;;;;;6.45;100.00;102422.06;6084028;29;20248;-75
2022/11/26 02:55:41;;;;;;;8.83;5.17;;;;;;;6.42;100.00;102429.38;6084299;29;20244;-75
2022/11/26 02:59:04;;;;;;;6.20;5.03;;;;;;;6.42;100.00;102440.09;6072647;29;20240;-74
2022/11/26 03:02:32;;;;;;;6.90;5.20;;;;;;;6.36;100.00;102438.53;6083550;29;21178;-74
2022/11/26 03:05:57;;;;;;;5.93;5.27;;;;;;;6.43;100.00;102442.69;6088945;29;20237;-75
2022/11/26 03:09:18;;;;;;;5.33;4.83;;;;;;;6.40;100.00;102440.13;6076578;29;20233;-75
2022/11/26 03:12:39;;;;;;;9.37;5.07;;;;;;;6.37;100.00;102450.13;6081447;29;20224;-75
2022/11/26 03:16:00;;;;;;;8.97;4.90;;;;;;;6.35;100.00;102458.25;6093722;29;20237;-75
2022/11/26 03:19:21;;;;;;;6.07;4.13;;;;;;;6.30;100.00;102457.56;6080514;29;20598;-75
2022/11/26 03:22:44;;;;;;;5.70;5.10;;;;;;;6.30;100.00;102454.06;6097328;29;20240;-75
2022/11/26 03:26:05;;;;;;;4.50;4.10;;;;;;;6.16;100.00;102468.03;6090817;28;20245;-75
2022/11/26 03:29:26;;;;;;;6.67;4.40;;;;;;;6.10;100.00;102467.44;6076941;29;20232;-75
2022/11/26 03:32:47;;;;;;;5.87;4.70;;;;;;;6.07;100.00;102478.31;6089051;29;20228;-74
2022/11/26 03:36:08;;;;;;;4.87;4.47;;;;;;;6.09;100.00;102476.44;6091346;29;20943;-75
2022/11/26 03:39:30;;;;;;;7.53;4.27;;;;;;;5.97;100.00;102474.28;6070684;29;20233;-76
2022/11/26 03:42:51;;;;;;;8.33;4.47;;;;;;;5.94;100.00;102471.75;6086460;29;20259;-75
2022/11/26 03:46:12;;;;;;;7.27;5.67;;;;;;;5.91;100.00;102478.09;6093387;28;20236;-75
2022/11/26 03:49:33;;;;;;;11.57;5.63;;;;;;;5.87;100.00;102481.84;6080431;29;20229;-75
2022/11/26 03:52:54;;;;;;;6.20;5.13;;;;;;;5.85;100.00;102488.19;6089668;29;20225;-75
2022/11/26 03:56:17;;;;;;;11.73;6.97;;;;;;;5.84;100.00;102489.16;6089616;28;20254;-75
2022/11/26 03:59:37;;;;;;;9.37;5.03;;;;;;;5.84;100.00;102490.00;6074950;28;20315;-75
2022/11/26 04:02:58;;;;;;;7.93;6.47;;;;;;;5.88;100.00;102494.31;6085155;29;20228;-76
2022/11/26 04:06:19;;;;;;;13.43;6.77;;;;;;;5.87;100.00;102497.91;6070504;29;20636;-74
2022/11/26 04:09:40;;;;;;;15.53;7.13;;;;;;;5.87;100.00;102502.38;6084844;28;20224;-76
2022/11/26 04:13:02;;;;;;;11.77;6.70;;;;;;;5.86;100.00;102493.47;6085435;28;20241;-76
2022/11/26 04:16:23;;;;;;;15.87;5.90;;;;;;;5.88;100.00;102491.63;6064974;29;20233;-76
2022/11/26 04:19:45;;;;;;;11.23;5.67;;;;;;;5.85;100.00;102499.78;6085085;29;20560;-75
2022/11/26 04:23:05;;;;;;;14.13;5.20;;;;;;;5.86;100.00;102497.97;6086180;29;22007;-76
2022/11/26 04:26:27;;;;;;;7.60;4.80;;;;;;;5.86;100.00;102503.34;6080162;28;20228;-75
2022/11/26 04:29:49;;;;;;;10.00;5.67;;;;;;;5.81;100.00;102507.97;6083516;29;20236;-76
2022/11/26 04:33:10;;;;;;;6.87;4.73;;;;;;;5.83;100.00;102506.97;6084454;29;20229;-75
2022/11/26 04:36:31;;;;;;;11.07;7.50;;;;;;;5.86;100.00;102506.84;6091635;29;20228;-74
2022/11/26 04:39:52;;;;;;;7.60;5.30;;;;;;;5.91;100.00;102509.34;6084283;29;20240;-74
2022/11/26 04:43:12;;;;;;;10.27;5.80;;;;;;;5.91;100.00;102512.00;6085634;29;20610;-75
2022/11/26 04:46:35;;;;;;;7.03;4.83;;;;;;;5.92;100.00;102524.47;6079857;29;20232;-75
2022/11/26 04:49:56;;;;;;;10.30;7.17;;;;;;;5.91;100.00;102534.31;6082231;29;20342;-75
2022/11/26 04:53:20;;;;;;;6.63;5.23;;;;;;;5.90;100.00;102537.06;6083371;29;21091;-75
2022/11/26 04:56:41;;;;;;;10.57;7.33;;;;;;;5.88;100.00;102534.44;6081585;29;20568;-74
2022/11/26 05:00:02;;;;;;;6.80;6.10;;;;;;;5.93;100.00;102539.59;6087724;29;20246;-75
2022/11/26 05:03:24;;;;;;;10.33;7.37;;;;;;;5.92;100.00;102544.09;6097646;29;20244;-74
2022/11/26 05:06:45;;;;;;;8.17;5.50;;;;;;;5.90;100.00;102545.97;6082678;29;20512;-75
2022/11/26 05:10:07;;;;;;;12.97;5.97;;;;;;;5.96;100.00;102552.84;6085866;29;20318;-74
2022/11/26 05:13:28;;;;;;;8.63;5.93;;;;;;;5.94;100.00;102552.91;6079917;29;20232;-75
2022/11/26 05:16:49;;;;;;;12.00;7.43;;;;;;;5.97;100.00;102558.13;6085572;29;20248;-75
2022/11/26 05:20:13;;;;;;;8.47;4.77;;;;;;;5.96;100.00;102553.72;6083851;29;20228;-75
2022/11/26 05:23:34;;;;;;;10.33;5.87;;;;;;;6.00;100.00;102565.16;6075732;28;20233;-75
2022/11/26 05:26:55;;;;;;;11.07;7.13;;;;;;;5.93;100.00;102571.69;6094343;29;20248;-75
2022/11/26 05:30:17;;;;;;;10.30;5.67;;;;;;;6.02;100.00;102564.16;6079866;29;20236;-75
2022/11/26 05:33:38;;;;;;;8.73;5.70;;;;;;;5.97;100.00;102562.59;6077743;29;20293;-75
2022/11/26 05:37:00;;;;;;;7.50;5.23;;;;;;;6.03;100.00;102568.56;6097810;29;20282;-75
2022/11/26 05:40:21;;;;;;;6.40;5.23;;;;;;;6.00;100.00;102574.06;6087081;29;20232;-75
2022/11/26 05:43:42;;;;;;;8.47;5.87;;;;;;;5.99;100.00;102576.78;6073357;29;20327;-74
2022/11/26 05:47:05;;;;;;;12.97;8.03;;;;;;;6.01;100.00;102588.28;6089252;28;20287;-75
2022/11/26 05:50:26;;;;;;;10.93;6.40;;;;;;;6.07;100.00;102588.91;6091485;29;20243;-74
2022/11/26 05:53:49;;;;;;;9.20;6.17;;;;;;;6.03;100.00;102599.84;6076567;29;20237;-75
2022/11/26 05:57:10;;;;;;;9.37;5.77;;;;;;;6.15;100.00;102591.28;6093659;29;20229;-76
2022/11/26 06:00:31;;;;;;;11.03;7.10;;;;;;;6.13;100.00;102599.34;6084246;28;20231;-76
2022/11/26 06:03:52;;;;;;;8.30;7.00;;;;;;;6.12;100.00;102610.13;6068298;28;20267;-75
2022/11/26 06:07:13;;;;;;;9.53;5.93;;;;;;;6.15;100.00;102610.03;6094715;29;20253;-74
2022/11/26 06:10:35;;;;;;;15.03;7.87;;;;;;;6.18;100.00;102612.56;6081028;29;20509;-75
2022/11/26 06:13:56;;;;;;;8.63;6.87;;;;;;;6.07;100.00;102613.00;6082654;29;20971;-75
2022/11/26 06:17:17;;;;;;;13.13;6.20;;;;;;;6.15;100.00;102618.06;6096910;29;20256;-75
2022/11/26 06:20:38;;;;;;;10.37;6.40;;;;;;;6.05;100.00;102624.75;6093665;29;20228;-75
2022/11/26 06:23:59;;;;;;;10.97;7.10;;;;;;;6.06;100.00;102632.69;6081424;28;20548;-75
2022/11/26 06:27:21;;;;;;;6.73;5.47;;;;;;;6.10;100.00;102638.78;6089640;29;20244;-75
2022/11/26 06:30:44;;;;;;;9.83;7.80;;;;;;;6.09;100.00;102621.84;6087453;29;20228;-75
2022/11/26 06:34:05;;;;;;;10.57;8.70;;;;;;;6.20;100.00;102622.28;6069245;29;20328;-75
2022/11/26 06:37:26;;;;;;;13.73;8.13;;;;;;;6.15;100.00;102632.28;6081573;29;20611;-76
2022/11/26 06:40:47;;;;;;;14.43;9.10;;;;;;;6.08;100.00;102630.81;6092742;29;20240;-75
2022/11/26 06:44:09;;;;;;;12.30;7.80;;;;;;;6.06;100.00;102643.41;6076136;29;20228;-76
2022/11/26 06:47:30;;;;;;;15.10;8.20;;;;;;;6.08;100.00;102651.38;6079145;29;20244;-75
2022/11/26 06:50:51;;;;;;;12.67;8.70;;;;;;;6.14;100.00;102648.44;6076719;29;20566;-76
2022/11/26 06:54:12;;;;;;;10.60;7.87;;;;;;;6.03;100.00;102654.22;6075523;28;20232;-75
2022/11/26 06:57:33;;;;;;;20.07;9.60;;;;;;;6.03;100.00;102662.25;6087835;29;20240;-75
2022/11/26 07:00:56;;;;;;;10.03;7.60;;;;;;;6.11;100.00;102664.63;6075255;29;20240;-75
2022/11/26 07:04:16;;;;;;;15.50;8.67;;;;;;;6.13;100.00;102668.97;6077702;29;20244;-75
2022/11/26 07:07:38;;;;;;;11.90;9.67;;;;;;;6.10;100.00;102673.59;6092841;29;20232;-75
2022/11/26 07:11:02;;;;;;;18.00;9.53;;;;;;;6.06;100.00;102677.31;6074612;29;20555;-75
2022/11/26 07:14:22;;;;;;;17.10;9.77;;;;;;;6.06;100.00;102686.25;6082617;28;20232;-75
2022/11/26 07:17:44;;;;;;;15.47;9.47;;;;;;;6.07;100.00;102682.59;6088156;28;20233;-75
2022/11/26 07:21:08;;;;;;;15.10;8.13;;;;;;;6.09;100.00;102683.41;6081278;29;20272;-76
2022/11/26 07:24:29;;;;;;;14.67;8.37;;;;;;;6.02;100.00;102679.28;6077926;29;20274;-76
2022/11/26 07:27:50;;;;;;;14.63;9.60;;;;;;;6.04;100.00;102693.47;6081922;28;20875;-75
2022/11/26 07:31:12;;;;;;;15.10;9.63;;;;;;;5.98;100.00;102707.09;6064985;29;20232;-76
2022/11/26 07:34:35;;;;;;;11.80;8.87;;;;;;;5.99;100.00;102716.84;6071697;29;20713;-74
2022/11/26 07:37:56;;;;;;;9.80;8.50;;;;;;;6.12;100.00;102714.56;6088764;29;20241;-75
2022/11/26 07:41:19;;;;;;;13.57;9.47;;;;;;;5.97;100.00;102728.53;6087638;29;20797;-77
2022/11/26 07:44:40;;;;;;;13.33;9.50;;;;;;;6.00;100.00;102723.09;6086029;28;20240;-74
2022/11/26 07:48:01;;;;;;;18.83;12.80;;;;;;;6.07;100.00;102714.72;6086615;29;20236;-76
2022/11/26 07:51:25;;;;;;;11.40;8.23;;;;;;;6.06;100.00;102713.00;6090438;29;20725;-73
2022/11/26 07:54:45;;;;;;;14.90;11.83;;;;;;;6.16;100.00;102719.72;6080903;28;20606;-73
2022/11/26 07:58:06;;;;;;;16.47;10.07;;;;;;;5.96;100.00;102725.03;6091489;29;20263;-73
2022/11/26 08:01:29;;;;;;;15.83;10.37;;;;;;;5.94;100.00;102724.22;6074860;29;20237;-73
2022/11/26 08:04:50;;;;;;;12.20;8.67;;;;;;;5.91;100.00;102726.13;6070532;29;20220;-73
2022/11/26 08:08:13;;;;;;;12.17;8.50;;;;;;;5.85;100.00;102731.72;6075295;29;20232;-72
2022/11/26 08:11:34;;;;;;;9.40;8.17;;;;;;;5.87;100.00;102738.75;6069254;29;20252;-73
2022/11/26 08:14:54;;;;;;;17.50;10.67;;;;;;;6.02;100.00;102745.31;6078268;28;20237;-73
2022/11/26 08:18:15;;;;;;;13.67;8.90;;;;;;;6.06;100.00;102742.44;6082194;28;20607;-73
2022/11/26 08:21:37;;;;;;;17.60;8.77;;;;;;;6.01;100.00;102740.88;6080010;29;20233;-74
2022/11/26 08:24:59;;;;;;;14.40;9.43;;;;;;;6.06;100.00;102750.47;6076563;28;20606;-73
2022/11/26 08:28:20;;;;;;;18.50;8.97;;;;;;;6.11;100.00;102743.13;6084722;29;20252;-74
2022/11/26 08:31:41;;;;;;;17.83;9.80;;;;;;;6.02;100.00;102750.66;6083089;29;20233;-73
2022/11/26 08:35:03;;;;;;;20.40;9.57;;;;;;;6.06;100.00;102747.81;6072470;29;20315;-73
2022/11/26 08:38:24;;;;;;;16.33;9.87;;;;;;;6.09;100.00;102761.06;6077484;28;20225;-74
2022/11/26 08:41:47;;;;;;;19.00;10.43;;;;;;;6.16;100.00;102759.88;6084616;28;20742;-74
2022/11/26 08:45:08;;;;;;;13.40;9.00;;;;;;;6.23;100.00;102755.16;6083389;29;20236;-74
2022/11/26 08:48:30;;;;;;;14.43;9.03;;;;;;;6.27;100.00;102765.69;6081808;29;20232;-73
2022/11/26 08:51:51;;;;;;;10.83;7.63;;;;;;;6.24;100.00;102770.28;6076643;29;20228;-73
2022/11/26 08:55:12;;;;;;;15.10;9.90;;;;;;;6.09;100.00;102769.09;6079309;28;20318;-73
2022/11/26 08:58:36;;;;;;;11.53;7.60;;;;;;;6.21;100.00;102771.28;6074258;29;20267;-73
2022/11/26 09:01:57;;;;;;;10.07;7.33;;;;;;;6.52;100.00;102770.91;6089092;28;20658;-73
2022/11/26 09:05:18;;;;;;;11.00;7.37;;;;;;;6.78;100.00;102762.63;6088136;29;20730;-73
2022/11/26 09:09:11;;;;;;;15.23;10.50;;;;;;;6.93;99.95;102767.31;6073876;29;20240;-72
2022/11/26 09:12:25;;;;;;;11.83;8.53;;;;;;;6.98;99.86;102775.19;6088986;29;20240;-74
2022/11/26 09:15:48;;;;;;;14.70;9.90;;;;;;;7.19;100.00;102763.50;6050959;29;20319;-72
2022/11/26 09:19:11;;;;;;;17.40;9.43;;;;;;;7.32;99.68;102763.84;6072483;28;20835;-73
2022/11/26 09:22:33;;;;;;;17.03;8.77;;;;;;;7.76;100.00;102766.19;6076459;29;20840;-73
2022/11/26 09:25:54;;;;;;;9.27;7.90;;;;;;;8.03;97.79;102767.59;6090420;28;21076;-73
2022/11/26 09:29:17;;;;;;;9.97;7.27;;;;;;;7.41;96.00;102777.69;6072446;29;20235;-74
2022/11/26 09:32:40;;;;;;;16.93;7.67;;;;;;;6.99;97.52;102771.53;6087222;28;20224;-74
2022/11/26 09:36:04;;;;;;;15.10;9.17;;;;;;;6.86;97.55;102791.81;6088666;28;20240;-76
2022/11/26 09:39:25;;;;;;;10.50;7.97;;;;;;;6.89;98.75;102789.84;6066502;29;20232;-75
2022/11/26 09:42:55;;;;;;;11.73;8.03;;;;;;;6.93;98.61;102801.31;6077315;29;20634;-75
2022/11/26 09:46:19;;;;;;;17.27;7.40;;;;;;;7.01;98.30;102802.72;6063455;29;21413;-74
2022/11/26 09:49:52;;;;;;;11.60;6.57;;;;;;;6.93;98.63;102809.34;6043915;29;21143;-73
2022/11/26 09:53:19;;;;;;;8.10;6.57;;;;;;;7.00;98.35;102811.72;6059150;29;20505;-73
2022/11/26 09:56:40;;;;;;;12.27;8.90;;;;;;;6.79;99.10;102812.63;6066837;29;20673;-73
2022/11/26 10:00:03;;;;;;;8.97;6.07;;;;;;;6.83;99.25;102816.03;6067883;29;20240;-73
2022/11/26 10:03:31;;;;;;;13.77;8.27;;;;;;;6.87;98.63;102812.28;6074998;29;20237;-73
2022/11/26 10:07:03;;;;;;;15.27;6.90;;;;;;;6.77;99.15;102813.63;6080142;29;20658;-74
2022/11/26 10:10:29;;;;;;;13.27;8.30;;;;;;;6.77;99.20;102813.63;6077299;28;20301;-73
2022/11/26 10:14:03;;;;;;;9.20;7.33;;;;;;;6.74;99.84;102817.28;6082253;29;20643;-75
2022/11/26 10:17:36;;;;;;;8.30;6.33;;;;;;;6.84;99.36;102823.16;6092238;28;20823;-75
2022/11/26 10:21:14;;;;;;;11.00;6.87;;;;;;;6.85;99.75;102824.88;6070996;29;20229;-78
2022/11/26 10:24:40;;;;;;;8.23;7.33;;;;;;;6.84;99.36;102825.84;6088785;28;20614;-77
2022/11/26 10:28:03;;;;;;;18.77;8.33;;;;;;;7.08;98.57;102819.41;6090746;29;20236;-77
2022/11/26 10:31:31;;;;;;;11.53;6.37;;;;;;;7.28;97.25;102826.59;6085425;29;20344;-77
2022/11/26 10:34:54;;;;;;;20.60;8.10;;;;;;;7.05;97.25;102831.13;6077942;29;20237;-77
2022/11/26 10:38:15;;;;;;;14.97;7.23;;;;;;;6.79;98.65;102834.06;6082107;28;20622;-75
2022/11/26 10:41:38;;;;;;;11.77;6.83;;;;;;;6.79;98.61;102838.53;6072209;29;20228;-77
2022/11/26 10:45:18;;;;;;;8.20;7.13;;;;;;;6.85;99.09;102838.28;6090110;29;20422;-75
2022/11/26 10:48:39;;;;;;;11.60;7.00;;;;;;;6.91;98.75;102840.72;6078721;28;20229;-76
2022/11/26 10:52:03;;;;;;;8.73;6.20;;;;;;;7.01;98.14;102850.09;6089265;29;20697;-76
2022/11/26 10:55:27;;;;;;;8.17;6.30;;;;;;;6.83;98.89;102851.75;6095901;29;20239;-76
2022/11/26 10:58:52;;;;;;;9.10;6.87;;;;;;;6.58;99.60;102852.81;6087306;29;20236;-77
2022/11/26 11:02:29;;;;;;;8.93;6.73;;;;;;;6.52;100.00;102850.41;6101572;29;20316;-77
2022/11/26 11:05:51;;;;;;;9.53;6.00;;;;;;;6.75;99.36;102847.66;6090610;29;20299;-77
2022/11/26 11:09:31;;;;;;;10.83;7.53;;;;;;;6.70;99.54;102849.63;6082637;29;20229;-77
2022/11/26 11:13:02;;;;;;;10.73;6.10;;;;;;;6.60;99.38;102846.47;6093543;28;20244;-76
2022/11/26 11:16:28;;;;;;;9.03;7.50;;;;;;;6.78;99.22;102843.03;6096711;29;20599;-77
2022/11/26 11:19:49;;;;;;;9.40;7.90;;;;;;;6.71;99.05;102844.25;6088615;29;20231;-78
2022/11/26 11:23:21;;;;;;;11.10;6.67;;;;;;;6.77;99.19;102853.81;6095183;29;20241;-78
2022/11/26 11:26:44;;;;;;;15.67;6.57;;;;;;;6.65;99.42;102857.00;6096441;29;20233;-78
2022/11/26 11:30:07;;;;;;;11.77;8.10;;;;;;;6.70;99.56;102855.88;6087246;29;20240;-77
2022/11/26 11:33:30;;;;;;;10.30;8.20;;;;;;;6.64;99.41;102853.44;6111948;28;20232;-78
2022/11/26 11:36:59;;;;;;;10.80;8.30;;;;;;;6.67;99.95;102857.81;6091082;29;20236;-78
2022/11/26 11:40:26;;;;;;;10.53;7.27;;;;;;;6.81;99.31;102842.03;6097310;29;20498;-78
2022/11/26 11:43:48;;;;;;;10.23;6.10;;;;;;;6.92;99.41;102853.19;6087308;29;20289;-78
2022/11/26 11:47:26;;;;;;;11.83;7.47;;;;;;;6.76;99.57;102857.47;6103715;29;20658;-77
2022/11/26 11:50:58;;;;;;;11.77;6.77;;;;;;;6.75;99.68;102859.25;6095555;29;20614;-78
2022/11/26 11:54:24;;;;;;;10.80;7.23;;;;;;;6.71;99.99;102864.78;6092149;29;20247;-77
2022/11/26 11:57:59;;;;;;;26.23;9.43;;;;;;;6.70;99.99;102858.56;6107971;28;20252;-77
2022/11/26 12:01:35;;;;;;;12.53;8.23;;;;;;;6.86;99.57;102861.50;6092738;29;20241;-77
2022/11/26 12:05:17;;;;;;;15.63;9.40;;;;;;;6.92;98.97;102862.13;6094103;29;20235;-77
2022/11/26 12:08:53;;;;;;;10.50;6.87;;;;;;;6.94;99.42;102852.19;6097999;28;20698;-76
2022/11/26 12:12:21;;;;;;;9.27;7.03;;;;;;;7.07;98.22;102852.56;6101190;29;20224;-77
2022/11/26 12:15:50;;;;;;;11.00;6.60;;;;;;;7.31;97.12;102854.16;6099552;29;20232;-76
2022/11/26 12:19:22;;;;;;;20.63;10.00;;;;;;;7.01;98.02;102845.63;6092982;29;20353;-78
2022/11/26 12:22:49;;;;;;;9.87;7.60;;;;;;;6.94;98.74;102843.28;6115007;28;20228;-78
2022/11/26 12:26:17;;;;;;;15.07;8.37;;;;;;;6.98;99.09;102843.09;6098441;29;20229;-77
2022/11/26 12:29:44;;;;;;;11.73;7.67;;;;;;;7.03;99.53;102851.78;6101358;28;20231;-77
2022/11/26 12:33:11;;;;;;;21.13;7.83;;;;;;;7.06;98.93;102840.06;6098618;29;20244;-78
2022/11/26 12:36:37;;;;;;;10.73;7.43;;;;;;;6.97;98.84;102844.00;6091397;28;20258;-78
2022/11/26 12:40:03;;;;;;;10.23;7.00;;;;;;;6.95;99.28;102840.53;6097971;29;20236;-78
2022/11/26 12:43:34;;;;;;;11.87;7.47;;;;;;;6.94;98.86;102846.84;6090395;29;20318;-77
2022/11/26 12:47:09;;;;;;;13.30;7.77;;;;;;;6.86;100.00;102848.94;6093730;29;20554;-78
2022/11/26 12:50:38;;;;;;;16.30;8.73;;;;;;;6.91;99.64;102844.28;6109766;28;20677;-77
2022/11/26 12:54:06;;;;;;;9.77;8.57;;;;;;;6.95;99.64;102845.00;6086288;28;20236;-79
2022/11/26 12:57:32;;;;;;;12.00;8.07;;;;;;;7.13;99.84;102841.56;6099953;29;20249;-77
2022/11/26 13:00:55;;;;;;;10.90;6.37;;;;;;;7.22;99.02;102844.69;6097542;29;20240;-79
2022/11/26 13:04:19;;;;;;;11.63;8.03;;;;;;;7.02;99.78;102849.19;6090260;28;20231;-77
2022/11/26 13:07:57;;;;;;;12.87;7.03;;;;;;;7.04;100.00;102850.88;6101724;28;20252;-77
2022/11/26 13:11:30;;;;;;;14.90;9.13;;;;;;;7.14;99.91;102844.16;6097360;29;20236;-77
2022/11/26 13:14:59;;;;;;;12.93;8.83;;;;;;;7.13;99.57;102844.25;6096049;29;20227;-79
2022/11/26 13:18:29;;;;;;;14.67;8.40;;;;;;;7.14;99.06;102844.16;6097435;29;20251;-77
2022/11/26 13:22:36;;;;;;;18.07;8.40;;;;;;;7.21;99.43;102836.72;6085504;29;20244;-78
2022/11/26 13:26:10;;;;;;;10.97;8.43;;;;;;;7.15;99.31;102840.53;6101890;28;20236;-77
2022/11/26 13:30:05;;;;;;;12.60;8.43;;;;;;;7.21;99.42;102842.09;6092542;28;20225;-77
2022/11/26 13:33:52;;;;;;;11.07;8.57;;;;;;;7.26;100.00;102837.38;6092766;29;20236;-83
2022/11/26 13:37:40;;;;;;;15.93;9.23;;;;;;;7.23;100.00;102834.84;6110525;28;20225;-77
2022/11/26 13:41:18;;;;;;;13.57;9.30;;;;;;;7.10;100.00;102839.00;6090550;29;20623;-77
2022/11/26 13:45:15;;;;;;;13.90;8.47;;;;;;;7.08;100.00;102830.16;6079306;29;20224;-77
2022/11/26 13:48:47;;;;;;;15.07;7.93;;;;;;;7.09;100.00;102838.13;6089488;29;20832;-78
2022/11/26 13:52:14;;;;;;;15.90;10.00;;;;;;;7.18;100.00;102827.00;6105459;28;20244;-77
2022/11/26 13:55:40;;;;;;;20.13;9.13;;;;;;;7.31;100.00;102826.47;6078212;29;20241;-77
2022/11/26 13:59:05;;;;;;;13.60;7.93;;;;;;;7.42;100.00;102826.88;6089136;28;20243;-77
2022/11/26 14:02:43;;;;;;;13.97;10.40;;;;;;;7.42;100.00;102833.13;6108785;29;20240;-78
2022/11/26 14:06:08;;;;;;;13.63;9.60;;;;;;;7.39;100.00;102825.19;6100360;29;20229;-78
2022/11/26 14:09:47;;;;;;;16.83;8.63;;;;;;;7.27;100.00;102815.00;6104344;28;20605;-77
2022/11/26 14:13:15;;;;;;;15.97;9.60;;;;;;;7.35;100.00;102828.06;6106499;28;20244;-77
2022/11/26 14:17:14;;;;;;;19.53;11.17;;;;;;;7.28;100.00;102830.13;6092850;29;20232;-78
2022/11/26 14:21:14;;;;;;;13.77;7.60;;;;;;;7.28;100.00;102838.19;6097047;28;20239;-77
2022/11/26 14:24:57;;;;;;;18.37;8.73;;;;;;;7.33;100.00;102848.72;6108946;28;20223;-76
2022/11/26 14:28:18;;;;;;;14.30;8.20;;;;;;;7.32;100.00;102847.88;6098002;29;20741;-77
2022/11/26 14:31:42;;;;;;;14.63;9.40;;;;;;;7.33;100.00;102846.03;6094392;29;20236;-81
2022/11/26 14:35:16;;;;;;;13.83;7.13;;;;;;;7.32;100.00;102855.91;6101614;29;20310;-80
2022/11/26 14:38:39;;;;;;;13.23;8.23;;;;;;;7.25;100.00;102860.69;6087488;29;20483;-79
2022/11/26 14:42:00;;;;;;;10.40;8.30;;;;;;;7.19;100.00;102860.94;6107026;29;20228;-80
2022/11/26 14:45:31;;;;;;;23.30;9.93;;;;;;;7.19;100.00;102865.44;6103736;29;20268;-80
2022/11/26 14:48:53;;;;;;;12.63;8.80;;;;;;;7.09;100.00;102862.25;6077070;28;20342;-80
2022/11/26 14:52:19;;;;;;;14.70;7.33;;;;;;;7.11;100.00;102863.06;6099997;29;20551;-80
2022/11/26 14:55:44;;;;;;;11.97;7.87;;;;;;;7.13;100.00;102854.97;6101449;28;20240;-81
2022/11/26 14:59:06;;;;;;;15.50;8.07;;;;;;;7.10;100.00;102852.41;6104947;28;20248;-79
2022/11/26 15:02:29;;;;;;;16.30;7.80;;;;;;;7.08;100.00;102859.63;6104604;29;20232;-78
2022/11/26 15:05:50;;;;;;;12.93;8.90;;;;;;;7.12;100.00;102850.53;6097599;28;20251;-78
2022/11/26 15:09:14;;;;;;;12.47;7.23;;;;;;;6.98;100.00;102851.13;6089938;29;20255;-78
2022/11/26 15:12:37;;;;;;;11.43;8.43;;;;;;;6.95;100.00;102848.56;6101454;29;20583;-80
2022/11/26 15:16:00;;;;;;;13.00;7.47;;;;;;;7.03;100.00;102846.44;6104168;28;20232;-78
2022/11/26 15:19:21;;;;;;;12.33;8.60;;;;;;;7.06;100.00;102846.31;6082364;29;20241;-77
2022/11/26 15:22:48;;;;;;;15.27;7.37;;;;;;;7.08;100.00;102846.22;6096233;29;20229;-77
2022/11/26 15:26:16;;;;;;;11.40;7.40;;;;;;;7.25;100.00;102855.31;6095409;28;20232;-78
2022/11/26 15:29:40;;;;;;;10.27;6.83;;;;;;;7.34;100.00;102853.16;6086626;28;20231;-79
2022/11/26 15:33:03;;;;;;;18.53;7.23;;;;;;;7.17;100.00;102852.09;6094470;29;20244;-78
2022/11/26 15:36:24;;;;;;;17.27;8.00;;;;;;;7.11;100.00;102846.13;6102214;29;20255;-78
2022/11/26 15:39:44;;;;;;;16.27;9.37;;;;;;;7.06;100.00;102850.78;6090615;29;20228;-78
2022/11/26 15:43:06;;;;;;;19.33;9.37;;;;;;;7.06;100.00;102848.09;6106044;28;20509;-78
2022/11/26 15:46:31;;;;;;;12.43;9.83;;;;;;;7.12;100.00;102847.84;6108338;28;20233;-77
2022/11/26 15:49:55;;;;;;;13.60;8.60;;;;;;;7.15;100.00;102861.13;6101600;28;20224;-78